createdAt,value
2023-02-05T00:00:17.459Z,-23254.75
2023-02-05T00:02:20.209Z,-23254.44
2023-02-05T00:04:23.019Z,-23253.00
2023-02-05T00:06:25.697Z,-23257.13
2023-02-05T00:08:30.302Z,-23256.66
2023-02-05T00:10:33.005Z,-23264.94
2023-02-05T00:12:35.678Z,-23263.03
2023-02-05T00:14:38.410Z,-23259.53
2023-02-05T00:16:42.526Z,-23255.06
2023-02-05T00:18:45.741Z,-23257.28
2023-02-05T00:20:48.456Z,-23263.19
2023-02-05T00:22:51.087Z,-23261.44
2023-02-05T00:24:53.712Z,-23263.50
2023-02-05T00:26:56.465Z,-23265.75
2023-02-05T00:28:59.170Z,-23264.94
2023-02-05T00:31:02.514Z,-23260.47
2023-02-05T00:33:06.706Z,-23257.94
2023-02-05T00:35:09.427Z,-23256.00
2023-02-05T00:37:12.701Z,-23252.19
2023-02-05T00:39:16.023Z,-23250.13
2023-02-05T00:41:19.491Z,-23249.31
2023-02-05T00:43:22.205Z,-23251.41
2023-02-05T00:45:24.843Z,-23260.31
2023-02-05T00:47:27.453Z,-23264.63
2023-02-05T00:49:31.630Z,-23268.63
2023-02-05T00:51:34.298Z,-23256.81
2023-02-05T00:53:37.113Z,-23253.47
2023-02-05T00:55:39.767Z,-23261.13
2023-02-05T00:57:43.522Z,-23263.03
2023-02-05T00:59:46.146Z,-23262.56
2023-02-05T01:01:48.870Z,-23258.25
2023-02-05T01:03:51.552Z,-23255.06
2023-02-05T01:05:55.629Z,-23256.81
2023-02-05T01:07:58.366Z,-23255.88
2023-02-05T01:10:01.131Z,-23245.81
2023-02-05T01:12:03.827Z,-23243.41
2023-02-05T01:14:06.512Z,-23243.91
2023-02-05T01:16:10.587Z,-23238.47
2023-02-05T01:18:13.697Z,-23239.91
2023-02-05T01:20:16.605Z,-23249.63
2023-02-05T01:22:20.865Z,-23249.63
2023-02-05T01:24:23.484Z,-23245.19
2023-02-05T01:26:26.109Z,-23252.19
2023-02-05T01:28:28.904Z,-23256.34
2023-02-05T01:30:31.633Z,-23246.78
2023-02-05T01:32:34.414Z,-23245.34
2023-02-05T01:34:37.597Z,-23237.69
2023-02-05T01:36:40.413Z,-23230.19
2023-02-05T01:38:44.491Z,-23233.84
2023-02-05T01:40:47.415Z,-23239.13
2023-02-05T01:42:50.217Z,-23233.69
2023-02-05T01:45:32.619Z,-23229.22
2023-02-05T01:47:35.743Z,-23231.94
2023-02-05T01:49:42.449Z,-23228.59
2023-02-05T01:51:46.688Z,-23228.25
2023-02-05T01:53:51.332Z,-23227.31
2023-02-05T01:55:58.489Z,-23230.19
2023-02-05T01:58:02.530Z,-23241.34
2023-02-05T02:00:06.597Z,-23233.22
2023-02-05T02:02:09.303Z,-23229.22
2023-02-05T02:04:14.783Z,-23228.25
2023-02-05T02:06:17.574Z,-23224.75
2023-02-05T02:08:20.221Z,-23224.44
2023-02-05T02:10:24.503Z,-23227.47
2023-02-05T02:12:29.606Z,-23230.81
2023-02-05T02:14:35.536Z,-23235.28
2023-02-05T02:16:39.964Z,-23225.72
2023-02-05T02:18:44.077Z,-23221.41
2023-02-05T02:20:49.929Z,-23219.16
2023-02-05T02:23:08.837Z,-23219.97
2023-02-05T02:25:30.132Z,-23216.44
2023-02-05T02:27:54.994Z,-23219.00
2023-02-05T02:30:01.846Z,-23222.84
2023-02-05T02:32:12.307Z,-23228.75
2023-02-05T02:34:19.492Z,-23230.34
2023-02-05T02:36:29.279Z,-23226.19
2023-02-05T02:38:36.049Z,-23219.97
2023-02-05T02:40:43.190Z,-23221.25
2023-02-05T02:42:50.137Z,-23220.44
2023-02-05T02:44:56.464Z,-23220.59
2023-02-05T02:47:04.278Z,-23217.41
2023-02-05T02:49:09.556Z,-23218.38
2023-02-05T02:51:14.408Z,-23220.94
2023-02-05T02:53:21.409Z,-23221.72
2023-02-05T02:55:25.485Z,-23223.47
2023-02-05T02:57:30.586Z,-23223.78
2023-02-05T02:59:39.117Z,-23223.94
2023-02-05T03:01:53.349Z,-23220.28
2023-02-05T03:04:01.062Z,-23221.09
2023-02-05T03:06:06.828Z,-23219.66
2023-02-05T03:08:14.001Z,-23224.44
2023-02-05T03:10:25.562Z,-23227.94
2023-02-05T03:12:28.404Z,-23227.63
2023-02-05T03:14:32.174Z,-23222.84
2023-02-05T03:16:34.986Z,-23225.56
2023-02-05T03:18:39.665Z,-23224.75
2023-02-05T03:20:46.516Z,-23225.72
2023-02-05T03:22:49.215Z,-23225.22
2023-02-05T03:24:52.601Z,-23227.00
2023-02-05T03:26:55.272Z,-23226.81
2023-02-05T03:28:59.380Z,-23228.41
2023-02-05T03:31:09.489Z,-23229.22
2023-02-05T03:33:27.603Z,-23229.53
2023-02-05T03:35:40.583Z,-23236.41
2023-02-05T03:37:57.455Z,-23228.41
2023-02-05T03:40:10.795Z,-23227.16
2023-02-05T03:42:23.404Z,-23229.22
2023-02-05T03:44:45.004Z,-23231.13
2023-02-05T03:46:58.212Z,-23230.97
2023-02-05T03:49:15.402Z,-23227.31
2023-02-05T03:51:24.417Z,-23226.66
2023-02-05T03:53:34.335Z,-23224.44
2023-02-05T03:55:42.521Z,-23221.88
2023-02-05T03:57:51.588Z,-23223.78
2023-02-05T03:59:55.649Z,-23224.28
2023-02-05T04:01:58.763Z,-23220.59
2023-02-05T04:04:01.459Z,-23216.78
2023-02-05T04:06:04.880Z,-23219.16
2023-02-05T04:08:09.012Z,-23222.50
2023-02-05T04:10:11.854Z,-23232.25
2023-02-05T04:12:14.595Z,-23234.47
2023-02-05T04:14:17.332Z,-23234.00
2023-02-05T04:16:19.949Z,-23230.81
2023-02-05T04:18:22.737Z,-23222.19
2023-02-05T04:20:25.544Z,-23220.75
2023-02-05T04:22:28.280Z,-23219.31
2023-02-05T04:24:32.405Z,-23219.00
2023-02-05T04:26:35.123Z,-23219.00
2023-02-05T04:28:37.755Z,-23218.06
2023-02-05T04:30:40.672Z,-23218.22
2023-02-05T04:32:43.603Z,-23218.53
2023-02-05T04:34:47.221Z,-23217.09
2023-02-05T04:36:49.903Z,-23215.81
2023-02-05T04:38:52.585Z,-23214.53
2023-02-05T04:40:56.938Z,-23213.25
2023-02-05T04:42:59.680Z,-23214.22
2023-02-05T04:45:02.337Z,-23214.84
2023-02-05T04:47:05.057Z,-23213.91
2023-02-05T04:49:07.719Z,-23213.09
2023-02-05T04:51:12.191Z,-23214.53
2023-02-05T04:53:14.967Z,-23214.22
2023-02-05T04:55:17.661Z,-23213.09
2023-02-05T04:57:21.717Z,-23212.31
2023-02-05T04:59:24.464Z,-23212.00
2023-02-05T05:01:27.238Z,-23212.00
2023-02-05T05:03:30.023Z,-23208.47
2023-02-05T05:05:33.230Z,-23207.84
2023-02-05T05:07:36.416Z,-23208.00
2023-02-05T05:09:39.202Z,-23205.28
2023-02-05T05:11:41.917Z,-23202.88
2023-02-05T05:13:46.529Z,-23203.69
2023-02-05T05:15:54.681Z,-23206.25
2023-02-05T05:17:57.627Z,-23204.63
2023-02-05T05:20:00.205Z,-23209.59
2023-02-05T05:22:02.838Z,-23209.13
2023-02-05T05:24:05.697Z,-23212.31
2023-02-05T05:26:10.265Z,-23215.50
2023-02-05T05:28:13.766Z,-23212.94
2023-02-05T05:30:17.796Z,-23211.66
2023-02-05T05:32:20.656Z,-23213.41
2023-02-05T05:34:23.323Z,-23212.00
2023-02-05T05:36:26.002Z,-23207.19
2023-02-05T05:38:28.758Z,-23209.59
2023-02-05T05:40:49.498Z,-23210.88
2023-02-05T05:43:12.121Z,-23214.06
2023-02-05T05:45:14.930Z,-23214.69
2023-02-05T05:47:19.084Z,-23219.16
2023-02-05T05:49:22.075Z,-23223.31
2023-02-05T05:51:26.021Z,-23223.00
2023-02-05T05:53:29.023Z,-23222.84
2023-02-05T05:55:31.833Z,-23222.84
2023-02-05T05:57:34.739Z,-23218.69
2023-02-05T05:59:37.666Z,-23225.06
2023-02-05T06:01:40.385Z,-23223.47
2023-02-05T06:03:44.458Z,-23215.19
2023-02-05T06:05:47.159Z,-23207.50
2023-02-05T06:07:49.960Z,-23204.47
2023-02-05T06:09:52.659Z,-23203.69
2023-02-05T06:11:55.422Z,-23199.38
2023-02-05T06:13:58.014Z,-23205.28
2023-02-05T06:16:00.704Z,-23204.00
2023-02-05T06:18:03.425Z,-23200.66
2023-02-05T06:20:08.069Z,-23194.41
2023-02-05T06:22:10.864Z,-23193.47
2023-02-05T06:24:13.505Z,-23201.13
2023-02-05T06:26:16.529Z,-23197.13
2023-02-05T06:28:19.552Z,-23199.84
2023-02-05T06:30:22.211Z,-23201.94
2023-02-05T06:32:26.836Z,-23208.16
2023-02-05T06:34:29.741Z,-23206.72
2023-02-05T06:36:33.780Z,-23205.28
2023-02-05T06:38:36.500Z,-23206.88
2023-02-05T06:40:39.195Z,-23209.75
2023-02-05T06:42:41.923Z,-23206.25
2023-02-05T06:44:44.661Z,-23206.25
2023-02-05T06:46:47.346Z,-23208.31
2023-02-05T06:48:49.977Z,-23209.28
2023-02-05T06:50:52.641Z,-23211.34
2023-02-05T06:52:56.758Z,-23212.78
2023-02-05T06:54:59.462Z,-23206.06
2023-02-05T06:57:02.040Z,-23204.31
2023-02-05T06:59:05.189Z,-23208.16
2023-02-05T07:01:07.873Z,-23208.63
2023-02-05T07:03:10.803Z,-23210.69
2023-02-05T07:05:13.505Z,-23212.31
2023-02-05T07:07:17.098Z,-23212.00
2023-02-05T07:09:21.968Z,-23213.56
2023-02-05T07:11:24.699Z,-23212.78
2023-02-05T07:13:27.478Z,-23212.00
2023-02-05T07:15:30.137Z,-23216.63
2023-02-05T07:17:32.742Z,-23222.50
2023-02-05T07:19:35.883Z,-23219.97
2023-02-05T07:21:38.498Z,-23224.59
2023-02-05T07:23:41.169Z,-23223.31
2023-02-05T07:25:46.212Z,-23221.56
2023-02-05T07:27:48.947Z,-23218.69
2023-02-05T07:29:51.673Z,-23215.50
2023-02-05T07:31:54.376Z,-23212.78
2023-02-05T07:33:57.050Z,-23210.56
2023-02-05T07:35:59.772Z,-23208.00
2023-02-05T07:38:02.415Z,-23210.88
2023-02-05T07:40:05.876Z,-23210.38
2023-02-05T07:42:10.222Z,-23211.34
2023-02-05T07:44:13.540Z,-23214.06
2023-02-05T07:46:16.351Z,-23215.00
2023-02-05T07:48:18.978Z,-23215.81
2023-02-05T07:50:21.685Z,-23219.00
2023-02-05T07:52:24.306Z,-23215.00
2023-02-05T07:54:26.957Z,-23214.69
2023-02-05T07:56:29.949Z,-23216.28
2023-02-05T07:58:34.003Z,-23217.09
2023-02-05T08:00:36.725Z,-23223.47
2023-02-05T08:02:39.433Z,-23230.50
2023-02-05T08:04:42.049Z,-23231.78
2023-02-05T08:06:44.760Z,-23234.97
2023-02-05T08:08:47.384Z,-23231.63
2023-02-05T08:10:56.635Z,-23233.69
2023-02-05T08:12:59.553Z,-23220.94
2023-02-05T08:15:03.799Z,-23217.88
2023-02-05T08:17:07.188Z,-23213.56
2023-02-05T08:19:15.192Z,-23214.22
2023-02-05T08:21:18.643Z,-23212.13
2023-02-05T08:23:21.974Z,-23215.66
2023-02-05T08:25:24.652Z,-23213.75
2023-02-05T08:27:29.839Z,-23213.25
2023-02-05T08:29:33.162Z,-23214.22
2023-02-05T08:31:38.038Z,-23219.16
2023-02-05T08:33:40.950Z,-23218.69
2023-02-05T08:35:43.748Z,-23218.53
2023-02-05T08:37:46.584Z,-23216.28
2023-02-05T08:39:50.377Z,-23214.84
2023-02-05T08:41:54.874Z,-23218.06
2023-02-05T08:43:58.924Z,-23221.72
2023-02-05T08:46:01.652Z,-23219.00
2023-02-05T08:48:05.877Z,-23220.94
2023-02-05T08:50:10.486Z,-23219.50
2023-02-05T08:52:13.216Z,-23227.31
2023-02-05T08:54:16.408Z,-23233.03
2023-02-05T08:56:20.262Z,-23240.38
2023-02-05T08:58:23.156Z,-23233.03
2023-02-05T09:00:26.040Z,-23228.91
2023-02-05T09:02:31.805Z,-23232.56
2023-02-05T09:04:36.306Z,-23236.25
2023-02-05T09:06:39.082Z,-23233.03
2023-02-05T09:08:42.150Z,-23234.31
2023-02-05T09:10:45.684Z,-23231.94
2023-02-05T09:12:48.787Z,-23233.03
2023-02-05T09:14:51.434Z,-23228.25
2023-02-05T09:16:54.319Z,-23230.19
2023-02-05T09:18:57.636Z,-23226.81
2023-02-05T09:21:01.696Z,-23227.31
2023-02-05T09:23:04.401Z,-23226.66
2023-02-05T09:25:07.784Z,-23227.63
2023-02-05T09:27:14.096Z,-23225.38
2023-02-05T09:29:16.791Z,-23232.56
2023-02-05T09:31:21.770Z,-23230.81
2023-02-05T09:33:24.507Z,-23231.78
2023-02-05T09:35:27.265Z,-23234.00
2023-02-05T09:37:31.255Z,-23232.72
2023-02-05T09:42:01.884Z,-23227.31
2023-02-05T09:44:14.088Z,-23233.69
2023-02-05T09:46:27.056Z,-23234.66
2023-02-05T09:48:52.093Z,-23235.28
2023-02-05T09:50:58.148Z,-23246.59
2023-02-05T09:53:05.965Z,-23240.72
2023-02-05T09:55:20.994Z,-23239.91
2023-02-05T09:57:33.885Z,-23247.25
2023-02-05T09:59:36.486Z,-23242.31
2023-02-05T10:01:45.419Z,-23251.41
2023-02-05T10:03:53.350Z,-23239.75
2023-02-05T10:06:09.672Z,-23233.69
2023-02-05T10:08:20.747Z,-23233.03
2023-02-05T10:10:29.111Z,-23231.47
2023-02-05T10:12:43.047Z,-23230.81
2023-02-05T10:14:55.884Z,-23231.28
2023-02-05T10:17:07.285Z,-23231.94
2023-02-05T10:19:27.707Z,-23233.03
2023-02-05T10:21:47.452Z,-23232.72
2023-02-05T10:24:08.929Z,-23232.91
2023-02-05T10:26:13.260Z,-23238.16
2023-02-05T10:28:41.456Z,-23232.41
2023-02-05T10:30:52.409Z,-23231.47
2023-02-05T10:32:58.724Z,-23236.88
2023-02-05T10:35:09.999Z,-23236.56
2023-02-05T10:37:16.684Z,-23234.97
2023-02-05T10:39:24.121Z,-18151.88
2023-02-05T10:41:32.398Z,-11784.06
2023-02-05T10:43:41.780Z,-8596.00
2023-02-05T10:45:44.716Z,-1890.31
2023-02-05T10:47:57.831Z,-4446.81
2023-02-05T10:50:05.238Z,-4766.28
2023-02-05T10:52:12.483Z,-3168.81
2023-02-05T10:54:24.043Z,-2529.53
2023-02-05T10:56:26.817Z,-5405.34
2023-02-05T10:58:39.674Z,-6683.44
2023-02-05T11:00:42.232Z,-9556.44
2023-02-05T11:02:49.734Z,-7641.78
2023-02-05T11:04:57.134Z,-7642.31
2023-02-05T11:07:01.673Z,-10197.41
2023-02-05T11:09:05.038Z,-16578.06
2023-02-05T11:11:20.925Z,-23018.72
2023-02-05T11:13:24.009Z,-23268.63
2023-02-05T11:15:28.949Z,-23273.88
2023-02-05T11:17:34.558Z,-23268.13
2023-02-05T11:19:37.753Z,-23268.78
2023-02-05T11:21:48.991Z,-23265.91
2023-02-05T11:23:56.599Z,-23270.22
2023-02-05T11:26:01.591Z,-23280.25
2023-02-05T11:28:06.194Z,-23273.88
2023-02-05T11:32:50.646Z,-23285.34
2023-02-05T11:35:10.647Z,-23278.81
2023-02-05T11:37:17.363Z,-23276.91
2023-02-05T11:39:34.062Z,-23277.69
2023-02-05T11:41:48.334Z,-23278.34
2023-02-05T11:43:53.580Z,-23281.03
2023-02-05T11:45:58.884Z,-23283.59
2023-02-05T11:48:04.091Z,-23280.72
2023-02-05T11:50:21.216Z,-23286.31
2023-02-05T11:52:28.544Z,-23283.75
2023-02-05T11:54:33.897Z,-23289.81
2023-02-05T11:56:36.618Z,-23291.41
2023-02-05T11:58:39.426Z,-23290.59
2023-02-05T12:00:52.969Z,-23289.97
2023-02-05T12:03:08.340Z,-23297.78
2023-02-05T12:05:19.672Z,-23299.03
2023-02-05T12:07:24.946Z,-23297.78
2023-02-05T12:09:28.366Z,-23292.34
2023-02-05T12:12:03.750Z,-23295.38
2023-02-05T12:14:14.713Z,-23295.69
2023-02-05T12:16:33.324Z,-23294.44
2023-02-05T12:18:47.585Z,-23294.91
2023-02-05T12:21:01.600Z,-23297.13
2023-02-05T12:23:44.542Z,-23295.88
2023-02-05T12:25:57.659Z,-23297.28
2023-02-05T12:28:20.313Z,-23299.69
2023-02-05T12:30:44.249Z,-23296.03
2023-02-05T12:32:59.957Z,-23294.91
2023-02-05T12:35:16.429Z,-23291.09
2023-02-05T12:37:34.420Z,-23291.09
2023-02-05T12:39:45.256Z,-23285.03
2023-02-05T12:42:01.889Z,-23288.22
2023-02-05T12:44:20.665Z,-23285.50
2023-02-05T12:46:38.749Z,-23290.28
2023-02-05T12:48:53.556Z,-23296.97
2023-02-05T12:51:10.942Z,-23297.13
2023-02-05T12:53:39.068Z,-23298.88
2023-02-05T12:55:58.753Z,-23294.28
2023-02-05T12:58:04.666Z,-23295.88
2023-02-05T13:00:14.927Z,-23302.72
2023-02-05T13:02:29.071Z,-23288.69
2023-02-05T13:04:37.440Z,-23287.56
2023-02-05T13:06:47.074Z,-23289.97
2023-02-05T13:08:53.100Z,-23283.59
2023-02-05T13:10:59.748Z,-23284.38
2023-02-05T13:13:05.934Z,-23288.84
2023-02-05T13:15:16.681Z,-23286.63
2023-02-05T13:17:24.899Z,-23285.34
2023-02-05T13:19:32.021Z,-23286.47
2023-02-05T13:21:53.509Z,-23284.38
2023-02-05T13:24:31.012Z,-23282.00
2023-02-05T13:26:57.318Z,-23280.88
2023-02-05T13:29:06.829Z,-23280.72
2023-02-05T13:31:18.883Z,-23290.44
2023-02-05T13:33:21.720Z,-23286.63
2023-02-05T13:35:25.843Z,-23286.63
2023-02-05T13:37:42.842Z,-23287.41
2023-02-05T13:40:24.201Z,-23293.00
2023-02-05T13:42:45.983Z,-23286.63
2023-02-05T13:45:22.179Z,-23289.81
2023-02-05T13:47:40.654Z,-23289.19
2023-02-05T13:50:16.209Z,-23290.44
2023-02-05T13:53:00.281Z,-23281.19
2023-02-05T13:55:26.315Z,-23282.81
2023-02-05T13:58:06.655Z,-23285.34
2023-02-05T14:00:13.848Z,-23282.31
2023-02-05T14:02:31.673Z,-23284.72
2023-02-05T14:04:40.701Z,-23278.34
2023-02-05T14:06:47.465Z,-23279.59
2023-02-05T14:08:55.240Z,-23273.56
2023-02-05T14:11:03.052Z,-23278.03
2023-02-05T14:13:18.461Z,-23279.59
2023-02-05T14:15:37.616Z,-23274.19
2023-02-05T14:17:55.837Z,-23277.38
2023-02-05T14:20:01.075Z,-23278.03
2023-02-05T14:22:08.111Z,-23279.59
2023-02-05T14:24:38.873Z,-23275.94
2023-02-05T14:26:51.441Z,-23263.50
2023-02-05T14:28:55.822Z,-23270.69
2023-02-05T14:30:59.787Z,-23270.84
2023-02-05T14:33:04.215Z,-23270.53
2023-02-05T14:35:31.632Z,-23262.06
2023-02-05T14:37:38.015Z,-23269.09
2023-02-05T14:39:40.668Z,-23268.28
2023-02-05T14:41:51.578Z,-23265.44
2023-02-05T14:43:58.506Z,-23263.34
2023-02-05T14:46:04.723Z,-23260.47
2023-02-05T14:48:07.553Z,-23258.25
2023-02-05T14:50:18.100Z,-23263.03
2023-02-05T14:52:29.598Z,-23256.97
2023-02-05T14:54:35.088Z,-23256.00
2023-02-05T14:56:43.916Z,-23253.31
2023-02-05T14:58:47.916Z,-23252.66
2023-02-05T15:00:50.742Z,-23252.19
2023-02-05T15:03:20.253Z,-23250.59
2023-02-05T15:05:31.455Z,-23248.03
2023-02-05T15:07:36.982Z,-23249.97
2023-02-05T15:09:45.117Z,-23252.19
2023-02-05T15:12:04.410Z,-23247.56
2023-02-05T15:14:33.146Z,-23250.75
2023-02-05T15:16:38.289Z,-23258.56
2023-02-05T15:18:43.224Z,-23252.81
2023-02-05T15:20:48.294Z,-23253.16
2023-02-05T15:22:58.062Z,-23253.94
2023-02-05T15:25:02.255Z,-23250.44
2023-02-05T15:27:15.039Z,-23249.31
2023-02-05T15:29:21.447Z,-23253.31
2023-02-05T15:31:34.513Z,-23243.75
2023-02-05T15:33:46.560Z,-23253.78
2023-02-05T15:35:52.624Z,-23252.19
2023-02-05T15:37:56.824Z,-23248.69
2023-02-05T15:40:06.467Z,-23246.44
2023-02-05T15:42:15.122Z,-23251.88
2023-02-05T15:44:24.885Z,-23248.84
2023-02-05T15:46:29.517Z,-23245.81
2023-02-05T15:48:35.390Z,-23249.97
2023-02-05T15:50:45.152Z,-23248.53
2023-02-05T15:52:47.860Z,-23247.41
2023-02-05T15:54:51.667Z,-23241.19
2023-02-05T15:56:55.450Z,-23243.56
2023-02-05T15:59:00.923Z,-23246.78
2023-02-05T16:01:04.374Z,-23247.56
2023-02-05T16:03:26.024Z,-23245.19
2023-02-05T16:05:30.473Z,-23242.63
2023-02-05T16:07:41.806Z,-23247.56
2023-02-05T16:09:47.561Z,-23244.53
2023-02-05T16:11:50.260Z,-23241.97
2023-02-05T16:14:03.826Z,-23243.09
2023-02-05T16:16:12.302Z,-23245.50
2023-02-05T16:18:22.000Z,-23237.34
2023-02-05T16:20:28.961Z,-23244.06
2023-02-05T16:22:36.001Z,-23240.72
2023-02-05T16:24:43.019Z,-23236.56
2023-02-05T16:26:49.317Z,-23232.56
2023-02-05T16:28:56.681Z,-23233.69
2023-02-05T16:31:00.906Z,-23231.78
2023-02-05T16:33:06.264Z,-17834.84
2023-02-05T16:35:25.605Z,-17513.38
2023-02-05T16:37:31.305Z,-12738.25
2023-02-05T16:39:40.466Z,-11146.22
2023-02-05T16:41:44.894Z,-8276.28
2023-02-05T16:43:47.709Z,-8596.34
2023-02-05T16:46:22.214Z,-12422.72
2023-02-05T16:48:28.297Z,-11466.28
2023-02-05T16:50:38.165Z,-10191.16
2023-02-05T16:52:41.991Z,-12422.44
2023-02-05T16:54:44.736Z,-10829.19
2023-02-05T16:56:53.244Z,-9872.50
2023-02-05T16:58:58.491Z,-6044.06
2023-02-05T17:01:04.145Z,-10192.88
2023-02-05T17:03:17.074Z,-8597.78
2023-02-05T17:05:23.303Z,-7639.78
2023-02-05T17:07:27.415Z,-5085.88
2023-02-05T17:09:35.553Z,-3488.38
2023-02-05T17:11:39.875Z,987.66
2023-02-05T17:13:44.611Z,6432.84
2023-02-05T17:15:47.376Z,1628.66
2023-02-05T17:17:51.953Z,-1250.13
2023-02-05T17:20:06.211Z,-4127.47
2023-02-05T17:22:19.964Z,-290.16
2023-02-05T17:24:26.915Z,-1890.13
2023-02-05T17:26:31.003Z,4830.44
2023-02-05T17:28:38.123Z,8679.72
2023-02-05T17:30:42.158Z,7076.75
2023-02-05T17:32:46.843Z,7395.97
2023-02-05T17:34:49.549Z,12208.91
2023-02-05T17:36:52.422Z,11885.72
2023-02-05T17:38:55.430Z,16381.03
2023-02-05T17:41:13.493Z,19920.59
2023-02-05T17:43:16.282Z,22816.41
2023-02-05T17:45:22.304Z,25402.63
2023-02-05T17:47:24.966Z,20246.59
2023-02-05T17:49:27.994Z,20898.63
2023-02-05T17:51:30.902Z,15747.63
2023-02-05T17:53:33.762Z,12210.75
2023-02-05T17:55:36.460Z,18955.97
2023-02-05T17:57:40.576Z,24754.25
2023-02-05T17:59:44.781Z,25392.75
2023-02-05T18:01:48.216Z,31516.78
2023-02-05T18:03:50.915Z,37007.44
2023-02-05T18:05:53.555Z,37975.75
2023-02-05T18:07:58.602Z,43156.38
2023-02-05T18:10:01.351Z,43162.56
2023-02-05T18:12:04.095Z,41536.75
2023-02-05T18:14:08.507Z,42509.94
2023-02-05T18:16:12.468Z,43485.84
2023-02-05T18:18:15.348Z,43799.31
2023-02-05T18:20:20.787Z,44442.66
2023-02-05T18:22:23.569Z,41208.84
2023-02-05T18:24:26.149Z,42175.78
2023-02-05T18:26:29.016Z,42181.09
2023-02-05T18:28:31.754Z,40565.38
2023-02-05T18:30:36.056Z,38625.94
2023-02-05T18:32:38.938Z,35719.63
2023-02-05T18:34:41.722Z,28940.13
2023-02-05T18:36:44.366Z,21534.53
2023-02-05T18:38:47.130Z,7395.69
2023-02-05T18:40:50.429Z,-9874.19
2023-02-05T18:42:53.892Z,-18161.44
2023-02-05T18:44:56.609Z,-23245.19
2023-02-05T18:47:00.598Z,-23242.94
2023-02-05T18:49:03.277Z,-23240.38
2023-02-05T18:51:06.684Z,-23243.41
2023-02-05T18:53:09.342Z,-23244.84
2023-02-05T18:55:12.545Z,-23242.78
2023-02-05T18:57:15.219Z,-23236.56
2023-02-05T18:59:20.970Z,-23237.19
2023-02-05T19:01:24.056Z,-21225.28
2023-02-05T19:03:28.563Z,-15611.41
2023-02-05T19:05:31.255Z,-20576.22
2023-02-05T19:07:35.046Z,-17200.59
2023-02-05T19:09:38.032Z,-13696.75
2023-02-05T19:11:41.542Z,-10511.91
2023-02-05T19:13:44.508Z,-19309.50
2023-02-05T19:15:47.252Z,-15608.66
2023-02-05T19:17:49.935Z,-17198.50
2023-02-05T19:19:54.573Z,-18229.16
2023-02-05T19:21:59.845Z,-13058.09
2023-02-05T19:24:05.600Z,-17192.97
2023-02-05T19:26:10.316Z,-11462.69
2023-02-05T19:28:13.073Z,-8275.69
2023-02-05T19:30:16.017Z,-7956.53
2023-02-05T19:32:18.650Z,-3169.19
2023-02-05T19:34:23.417Z,345.38
2023-02-05T19:36:28.128Z,3223.09
2023-02-05T19:38:31.523Z,8027.09
2023-02-05T19:40:36.021Z,3542.63
2023-02-05T19:42:39.426Z,665.38
2023-02-05T19:44:42.186Z,-295.22
2023-02-05T19:46:45.189Z,6102.28
2023-02-05T19:48:48.313Z,7384.41
2023-02-05T19:50:51.070Z,6101.94
2023-02-05T19:52:55.210Z,9302.59
2023-02-05T19:54:57.983Z,10585.09
2023-02-05T19:57:00.638Z,14431.53
2023-02-05T19:59:03.811Z,15712.81
2023-02-05T20:01:12.160Z,20210.81
2023-02-05T20:03:15.097Z,22454.13
2023-02-05T20:05:17.756Z,26956.19
2023-02-05T20:07:20.418Z,27280.22
2023-02-05T20:09:24.603Z,25353.38
2023-02-05T20:11:27.312Z,15069.81
2023-02-05T20:13:30.553Z,12506.06
2023-02-05T20:15:36.942Z,7702.41
2023-02-05T20:17:39.628Z,1303.41
2023-02-05T20:19:42.377Z,-3488.63
2023-02-05T20:21:45.692Z,-5723.13
2023-02-05T20:23:49.462Z,-13052.69
2023-02-05T20:25:58.668Z,-13690.09
2023-02-05T20:28:01.506Z,-6360.53
2023-02-05T20:30:21.832Z,-9548.75
2023-02-05T20:32:24.472Z,-9866.66
2023-02-05T20:34:30.905Z,-10502.28
2023-02-05T20:36:35.436Z,-9228.00
2023-02-05T20:38:38.055Z,342.94
2023-02-05T20:40:40.660Z,662.31
2023-02-05T20:42:44.642Z,2260.75
2023-02-05T20:44:47.705Z,-3807.84
2023-02-05T20:46:50.362Z,-8591.13
2023-02-05T20:48:53.277Z,-16868.91
2023-02-05T20:50:55.956Z,-23218.38
2023-02-05T20:52:58.637Z,-23216.63
2023-02-05T20:55:01.342Z,-23217.72
2023-02-05T20:57:04.076Z,-23217.72
2023-02-05T20:59:10.265Z,-23217.72
2023-02-05T21:01:15.302Z,-23215.97
2023-02-05T21:03:17.989Z,-23217.72
2023-02-05T21:05:20.663Z,-23217.25
2023-02-05T21:07:29.238Z,-23219.66
2023-02-05T21:09:31.926Z,-23221.09
2023-02-05T21:11:34.902Z,-23221.25
2023-02-05T21:13:37.538Z,-23223.16
2023-02-05T21:15:41.599Z,-23220.28
2023-02-05T21:17:44.245Z,-23226.66
2023-02-05T21:19:47.015Z,-23230.34
2023-02-05T21:21:51.008Z,-23233.38
2023-02-05T21:23:54.783Z,-23233.53
2023-02-05T21:25:57.428Z,-23227.47
2023-02-05T21:28:00.057Z,-23229.53
2023-02-05T21:30:03.046Z,-23231.13
2023-02-05T21:32:08.080Z,-23228.25
2023-02-05T21:34:13.813Z,-23227.31
2023-02-05T21:36:17.699Z,-23224.28
2023-02-05T21:38:20.337Z,-23226.34
2023-02-05T21:40:23.043Z,-23225.22
2023-02-05T21:42:25.797Z,-23225.88
2023-02-05T21:44:28.931Z,-23223.16
2023-02-05T21:46:32.038Z,-23223.00
2023-02-05T21:48:36.222Z,-23227.63
2023-02-05T21:50:39.643Z,-23232.56
2023-02-05T21:52:42.549Z,-23224.75
2023-02-05T21:54:48.733Z,-23224.44
2023-02-05T21:56:51.616Z,-23222.19
2023-02-05T21:58:54.410Z,-19859.38
2023-02-05T22:00:57.150Z,-17507.38
2023-02-05T22:02:59.845Z,-18141.63
2023-02-05T22:05:04.237Z,-16551.41
2023-02-05T22:07:06.889Z,-10503.56
2023-02-05T22:09:11.535Z,-8592.03
2023-02-05T22:11:14.738Z,-5722.28
2023-02-05T22:13:17.422Z,-5722.28
2023-02-05T22:15:20.053Z,-4445.91
2023-02-05T22:17:23.260Z,660.53
2023-02-05T22:19:26.493Z,9936.38
2023-02-05T22:21:32.512Z,13780.44
2023-02-05T22:23:35.795Z,17632.38
2023-02-05T22:25:38.623Z,15703.34
2023-02-05T22:27:42.737Z,12820.66
2023-02-05T22:29:45.413Z,14104.78
2023-02-05T22:31:51.839Z,12180.94
2023-02-05T22:33:54.584Z,6098.13
2023-02-05T22:35:58.287Z,3537.53
2023-02-05T22:38:02.235Z,6413.09
2023-02-05T22:40:05.597Z,10573.06
2023-02-05T22:42:08.252Z,16345.22
2023-02-05T22:44:12.252Z,14743.31
2023-02-05T22:46:17.052Z,14426.31
2023-02-05T22:48:19.898Z,12183.03
2023-02-05T22:50:22.540Z,9298.81
2023-02-05T22:52:26.131Z,7059.19
2023-02-05T22:54:30.137Z,2901.19
2023-02-05T22:56:32.884Z,-8909.94
2023-02-05T22:58:35.894Z,-4127.00
2023-02-05T23:00:38.514Z,-9865.97
2023-02-05T23:02:41.232Z,-7635.13
2023-02-05T23:04:43.887Z,-2850.38
2023-02-05T23:06:46.571Z,-2850.25
2023-02-05T23:08:51.228Z,-3169.69
2023-02-05T23:10:55.163Z,1619.50
2023-02-05T23:12:57.823Z,7056.72
2023-02-05T23:15:00.522Z,11541.38
2023-02-05T23:17:03.137Z,7057.59
2023-02-05T23:19:08.375Z,8014.50
2023-02-05T23:21:12.865Z,11220.97
2023-02-05T23:23:15.517Z,9297.13
2023-02-05T23:25:18.127Z,7056.97
2023-02-05T23:27:22.427Z,7695.16
2023-02-05T23:29:27.007Z,3215.56
2023-02-05T23:31:30.629Z,5772.94
2023-02-05T23:33:34.142Z,12176.75
2023-02-05T23:35:37.096Z,14103.75
2023-02-05T23:37:40.014Z,10577.09
2023-02-05T23:39:42.636Z,6093.13
2023-02-05T23:41:45.277Z,5452.22
2023-02-05T23:43:49.229Z,11212.25
2023-02-05T23:45:53.147Z,16981.44
2023-02-05T23:47:56.304Z,16341.75
2023-02-05T23:49:58.976Z,16342.09
2023-02-05T23:52:01.640Z,17619.72
2023-02-05T23:54:04.653Z,19861.16
2023-02-05T23:56:07.415Z,27249.28
2023-02-05T23:58:11.452Z,29177.69
